createdAt,value
2022-09-01T00:03:49.446Z,27.00
2022-09-01T00:10:04.119Z,27.00
2022-09-01T00:16:16.422Z,27.00
2022-09-01T00:22:32.009Z,26.90
2022-09-01T00:28:41.843Z,26.80
2022-09-01T00:34:53.124Z,26.70
2022-09-01T00:41:07.558Z,26.70
2022-09-01T00:47:21.897Z,26.60
2022-09-01T00:53:35.182Z,26.60
2022-09-01T00:59:51.498Z,26.50
2022-09-01T01:06:03.965Z,26.40
2022-09-01T01:12:13.868Z,26.40
2022-09-01T01:18:27.092Z,26.40
2022-09-01T01:24:43.347Z,26.30
2022-09-01T01:30:54.615Z,26.20
2022-09-01T01:37:06.590Z,26.10
2022-09-01T01:43:20.887Z,26.10
2022-09-01T01:49:33.795Z,26.00
2022-09-01T01:55:46.178Z,25.90
2022-09-01T02:01:56.856Z,25.90
2022-09-01T02:08:10.275Z,25.80
2022-09-01T02:14:22.763Z,25.70
2022-09-01T02:20:37.106Z,25.70
2022-09-01T02:26:51.209Z,25.60
2022-09-01T02:33:02.741Z,25.60
2022-09-01T02:39:13.461Z,25.50
2022-09-01T02:45:26.468Z,25.50
2022-09-01T02:51:39.830Z,25.40
2022-09-01T02:57:50.911Z,25.30
2022-09-01T03:04:02.365Z,25.30
2022-09-01T03:10:14.436Z,25.20
2022-09-01T03:16:25.943Z,25.10
2022-09-01T03:22:40.104Z,25.10
2022-09-01T03:28:51.115Z,25.10
2022-09-01T03:35:01.515Z,25.00
2022-09-01T03:41:15.432Z,24.90
2022-09-01T03:47:25.263Z,24.90
2022-09-01T03:53:40.611Z,24.80
2022-09-01T03:59:53.022Z,24.80
2022-09-01T04:06:04.010Z,24.70
2022-09-01T04:12:18.181Z,24.70
2022-09-01T04:18:32.613Z,24.60
2022-09-01T04:24:45.093Z,24.50
2022-09-01T04:30:56.854Z,24.40
2022-09-01T04:37:12.322Z,24.40
2022-09-01T04:43:24.866Z,24.40
2022-09-01T04:49:39.343Z,24.40
2022-09-01T04:55:52.493Z,24.30
2022-09-01T05:02:03.530Z,24.20
2022-09-01T05:08:23.160Z,24.10
2022-09-01T05:14:29.649Z,24.30
2022-09-01T05:20:41.769Z,24.40
2022-09-01T05:26:53.190Z,24.60
2022-09-01T05:33:04.516Z,24.70
2022-09-01T05:39:15.363Z,24.80
2022-09-01T05:45:27.279Z,24.90
2022-09-01T05:51:45.986Z,24.90
2022-09-01T05:57:58.503Z,24.90
2022-09-01T06:04:13.794Z,25.00
2022-09-01T06:10:28.744Z,25.00
2022-09-01T06:16:41.496Z,25.10
2022-09-01T06:22:54.910Z,25.00
2022-09-01T06:29:21.919Z,24.90
2022-09-01T06:35:34.657Z,25.00
2022-09-01T06:41:50.542Z,25.00
2022-09-01T06:47:59.922Z,25.10
2022-09-01T06:54:14.660Z,25.00
2022-09-01T07:00:28.977Z,24.90
2022-09-01T07:13:07.594Z,25.00
2022-09-01T07:19:06.467Z,25.10
2022-09-01T07:25:20.375Z,24.90
2022-09-01T07:38:47.774Z,24.90
2022-09-01T07:42:55.575Z,24.90
2022-09-01T07:44:04.577Z,25.00
2022-09-01T07:50:40.280Z,25.00
2022-09-01T07:56:30.883Z,24.90
2022-09-01T08:02:41.934Z,24.90
2022-09-01T08:08:56.827Z,24.90
2022-09-01T08:15:14.084Z,25.00
2022-09-01T08:21:24.200Z,25.00
2022-09-01T08:27:37.297Z,24.80
2022-09-01T08:33:51.778Z,24.80
2022-09-01T08:40:06.185Z,24.90
2022-09-01T08:46:21.120Z,24.90
2022-09-01T08:52:33.675Z,24.80
2022-09-01T08:58:48.261Z,24.70
2022-09-01T09:05:21.390Z,24.80
2022-09-01T09:11:25.742Z,24.80
2022-09-01T09:17:37.400Z,24.90
2022-09-01T09:23:49.755Z,24.80
2022-09-01T09:30:08.263Z,24.70
2022-09-01T09:36:25.534Z,24.70
2022-09-01T09:42:41.124Z,24.80
2022-09-01T09:48:53.537Z,24.80
2022-09-01T09:55:05.308Z,24.70
2022-09-01T10:01:18.632Z,24.70
2022-09-01T10:07:34.629Z,24.70
2022-09-01T10:13:47.900Z,24.70
2022-09-01T10:20:05.733Z,24.70
2022-09-01T10:26:18.814Z,24.60
2022-09-01T10:32:37.282Z,24.60
2022-09-01T10:38:53.844Z,24.60
2022-09-01T10:45:05.472Z,24.70
2022-09-01T10:51:36.185Z,24.70
2022-09-01T10:57:55.846Z,24.60
2022-09-01T11:04:08.662Z,24.60
2022-09-01T11:10:42.122Z,24.60
2022-09-01T11:17:11.286Z,24.60
2022-09-01T11:23:31.895Z,24.60
2022-09-01T11:30:01.260Z,24.50
2022-09-01T11:36:13.543Z,24.60
2022-09-01T11:42:30.516Z,24.70
2022-09-01T11:48:42.758Z,24.70
2022-09-01T11:54:56.790Z,24.70
2022-09-01T12:01:19.078Z,24.70
2022-09-01T12:07:38.550Z,24.70
2022-09-01T12:13:52.589Z,24.70
2022-09-01T12:20:28.667Z,24.80
2022-09-01T12:26:39.384Z,24.90
2022-09-01T12:32:51.036Z,24.80
2022-09-01T12:39:03.684Z,24.80
2022-09-01T12:45:16.539Z,24.80
2022-09-01T12:51:31.657Z,24.80
2022-09-01T12:57:42.595Z,24.70
2022-09-01T13:04:14.932Z,24.90
2022-09-01T13:10:30.872Z,25.00
2022-09-01T13:16:41.628Z,25.20
2022-09-01T13:22:52.642Z,25.40
2022-09-01T13:29:09.358Z,25.50
2022-09-01T13:35:25.062Z,25.70
2022-09-01T13:41:35.683Z,25.80
2022-09-01T13:54:01.507Z,26.10
2022-09-01T14:00:19.649Z,26.20
2022-09-01T14:06:30.881Z,26.30
2022-09-01T14:12:44.114Z,26.40
2022-09-01T14:18:57.109Z,26.40
2022-09-01T14:25:08.683Z,26.40
2022-09-01T14:31:20.495Z,26.40
2022-09-01T14:37:31.427Z,26.40
2022-09-01T14:43:41.261Z,26.50
2022-09-01T14:49:54.365Z,26.50
2022-09-01T14:56:05.885Z,26.60
2022-09-01T15:02:15.529Z,26.60
2022-09-01T15:08:27.373Z,26.60
2022-09-01T15:14:40.229Z,26.70
2022-09-01T15:20:55.625Z,26.70
2022-09-01T15:27:10.071Z,26.80
2022-09-01T15:33:23.972Z,26.80
2022-09-01T15:39:38.398Z,26.80
2022-09-01T15:45:50.445Z,26.90
2022-09-01T15:52:02.616Z,26.90
2022-09-01T15:58:15.467Z,27.00
2022-09-01T16:04:27.973Z,26.90
2022-09-01T16:10:39.671Z,27.00
2022-09-01T16:16:59.587Z,27.10
2022-09-01T16:23:17.101Z,27.10
2022-09-01T16:29:29.520Z,27.10
2022-09-01T16:35:46.064Z,27.10
2022-09-01T16:42:01.195Z,27.10
2022-09-01T16:48:16.859Z,27.10
2022-09-01T16:54:31.208Z,27.20
2022-09-01T17:00:48.051Z,27.20
2022-09-01T17:07:06.542Z,27.20
2022-09-01T17:13:31.559Z,27.20
2022-09-01T17:19:43.252Z,27.20
2022-09-01T17:25:58.494Z,27.30
2022-09-01T17:32:13.038Z,27.20
2022-09-01T17:38:28.421Z,27.20
2022-09-01T17:44:43.692Z,27.20
2022-09-01T17:51:03.425Z,27.20
2022-09-01T17:57:17.905Z,27.20
2022-09-01T18:03:38.548Z,27.20
2022-09-01T18:09:52.936Z,27.20
2022-09-01T18:16:00.929Z,27.20
2022-09-01T18:22:14.256Z,27.20
2022-09-01T18:28:26.703Z,27.10
2022-09-01T18:35:00.458Z,27.20
2022-09-01T18:41:31.266Z,27.20
2022-09-01T18:47:44.777Z,27.20
2022-09-01T18:53:55.302Z,27.10
2022-09-01T19:00:18.919Z,27.10
2022-09-01T19:06:33.268Z,27.10
2022-09-01T19:12:46.408Z,27.10
2022-09-01T19:18:58.588Z,27.10
2022-09-01T19:25:28.676Z,27.10
2022-09-01T19:31:40.858Z,27.10
2022-09-01T19:37:53.538Z,27.10
2022-09-01T19:44:07.070Z,27.10
2022-09-01T19:50:20.634Z,27.10
2022-09-01T19:56:34.587Z,27.00
2022-09-01T20:02:50.978Z,27.00
2022-09-01T20:09:08.045Z,27.10
2022-09-01T20:15:18.035Z,27.10
2022-09-01T20:21:27.082Z,27.10
2022-09-01T20:27:42.459Z,27.00
2022-09-01T20:33:55.588Z,27.00
2022-09-01T20:40:10.389Z,27.10
2022-09-01T20:46:25.665Z,26.80
2022-09-01T20:52:41.914Z,26.70
2022-09-01T20:58:53.804Z,26.90
2022-09-01T21:05:09.958Z,27.00
2022-09-01T21:11:30.271Z,27.00
2022-09-01T21:17:45.685Z,27.00
2022-09-01T21:23:58.014Z,26.90
2022-09-01T21:30:07.851Z,26.90
2022-09-01T21:36:22.365Z,27.00
2022-09-01T21:42:34.321Z,27.00
2022-09-01T21:48:48.264Z,27.00
2022-09-01T21:54:59.044Z,27.00
2022-09-01T22:01:10.597Z,27.00
2022-09-01T22:07:22.964Z,27.10
2022-09-01T22:13:35.729Z,27.10
2022-09-01T22:19:46.473Z,27.10
2022-09-01T22:25:58.729Z,27.00
2022-09-01T22:32:11.430Z,27.00
2022-09-01T22:38:23.406Z,27.10
2022-09-01T22:44:34.166Z,27.10
2022-09-01T22:50:46.736Z,27.10
2022-09-01T22:56:58.613Z,27.00
2022-09-01T23:03:10.595Z,27.00
2022-09-01T23:09:23.117Z,27.10
2022-09-01T23:15:33.210Z,27.10
2022-09-01T23:21:44.922Z,27.10
2022-09-01T23:27:57.868Z,27.00
2022-09-01T23:34:07.769Z,27.10
2022-09-01T23:40:18.005Z,27.10
2022-09-01T23:46:29.799Z,27.10
2022-09-01T23:52:40.689Z,27.00
2022-09-01T23:58:52.270Z,27.00
